Flight Track Log - Related Links

Times and Time Zones

All times are in EDT time to prevent confusion due to time zone crossing. See the N902SH flight status page for this flight to view local times or setup timezone preferences in your user account.

Time Position Orientation Groundspeed Altitude Reporting Facility
EDT Latitude Longitude Course Direction KTS MPH feet Rate Location/Type
Tue 08:02:05 AM 43.7347 -99.1014 96° East 172 198 8,500  Level Minneapolis Center
Tue 08:03:18 AM 43.7281 -99.0133 96° East 186 214 11,000 2,178 Climbing Minneapolis Center
Tue 08:04:20 AM 43.7219 -98.9239 95° East 193 222 13,400 2,000 Climbing Minneapolis Center
Tue 08:05:21 AM 43.7172 -98.8514 95° East 191 220 15,100 1,672 Climbing Minneapolis Center
Tue 08:06:22 AM 43.7119 -98.7769 96° East 195 224 16,800 976 Climbing Minneapolis Center
Tue 08:07:24 AM 43.7069 -98.6944 95° East 211 243 17,100 146 Climbing Minneapolis Center
Tue 08:08:25 AM 43.6872 -98.5886 104° East 262 302 17,100  Level Minneapolis Center
Tue 08:09:26 AM 43.6669 -98.4894 106° East 267 307 17,100  Level Minneapolis Center
Tue 08:10:28 AM 43.6483 -98.3872 104° East 275 316 17,100  Level Minneapolis Center
Tue 08:11:29 AM 43.6281 -98.2858 105° East 274 315 17,100 -98 Level Minneapolis Center
Tue 08:12:31 AM 43.6089 -98.1853 105° East 273 314 16,900 -537 Descending Minneapolis Center
Tue 08:13:32 AM 43.5875 -98.0783 105° East 284 327 16,000 -927 Descending Minneapolis Center
Tue 08:14:34 AM 43.5700 -97.9681 102° East 293 337 15,000 -1,122 Descending Minneapolis Center
Tue 08:15:35 AM 43.5539 -97.8350 99° East 294 338 13,700 -1,122 Descending Minneapolis Center
Tue 08:16:37 AM 43.5581 -97.7236 87° East 294 338 12,700 -976 Descending Minneapolis Center
Tue 08:17:38 AM 43.5614 -97.6122 88° East 293 337 11,700 -1,024 Descending Minneapolis Center
Tue 08:18:40 AM 43.5639 -97.4994 88° East 294 338 10,600 -1,065 Descending Minneapolis Center
Tue 08:19:42 AM 43.5667 -97.3867 88° East 295 339 9,500 -1,122 Descending Minneapolis Center
Tue 08:20:43 AM 43.5697 -97.2761 88° East 293 337 8,300 -1,171 Descending Minneapolis Center
Tue 08:21:45 AM 43.5731 -97.1700 87° East 283 326 7,100 -1,306 Descending Minneapolis Center
Tue 08:22:47 AM 43.5575 -97.0467 100° East 274 315 5,600 -1,463 Descending Minneapolis Center
Tue 08:23:48 AM 43.5392 -96.9486 104° East 270 311 4,100 -1,317 Descending Minneapolis Center
Tue 08:24:50 AM 43.5375 -96.8569 91° East 259 298 2,900 -780 Descending Minneapolis Center
Tue 08:25:51 AM 43.5497 -96.8008 73° East 222 255 2,500 -488 Descending Minneapolis Center
Tue 08:26:53 AM 43.5644 -96.7358 73° East 199 229 1,900 -581 Descending Minneapolis Center
Tue 08:28:00 AM 43.5667 -96.7333 North  Level FlightAware Approximate
Tue 08:35:00 AM 43.5820 -96.7419 North  Level Estimated

Login

Don't have an account? Register now (free) for customized features, flight alerts, and more!